Time;durP1;ratioP1;P1;durP2;ratioP2;P2;SDS_P1;SDS_P2;PMS_P1;PMS_P2;Temp;Humidity;BMP_temperature;BMP_pressure;BME280_temperature;BME280_humidity;BME280_pressure;Samples;Min_cycle;Max_cycle;Signal;HPM_P1;HPM_P2
2022/12/07 00:00:55;;;;;;;7.57;6.67;;;3.40;99.90;;;;;;5073018;28;20515;-77
2022/12/07 00:03:22;;;;;;;13.93;8.23;;;3.50;99.90;;;;;;5072275;28;20535;-77
2022/12/07 00:05:49;;;;;;;14.27;8.30;;;3.40;99.90;;;;;;5070323;28;20467;-77
2022/12/07 00:08:16;;;;;;;9.00;7.20;;;3.40;99.90;;;;;;5067598;28;20459;-77
2022/12/07 00:10:44;;;;;;;9.30;7.23;;;3.40;99.90;;;;;;5066655;28;20481;-77
2022/12/07 00:13:11;;;;;;;10.67;7.37;;;3.40;99.90;;;;;;5073213;28;20515;-77
2022/12/07 00:15:38;;;;;;;12.47;8.73;;;3.50;99.90;;;;;;5070508;28;20473;-77
2022/12/07 00:18:05;;;;;;;12.70;8.40;;;3.40;99.90;;;;;;5070881;28;20452;-77
2022/12/07 00:20:33;;;;;;;12.20;9.30;;;3.40;99.90;;;;;;5070380;28;20861;-77
2022/12/07 00:23:00;;;;;;;12.93;11.30;;;3.40;99.90;;;;;;5062466;28;20448;-77
2022/12/07 00:25:27;;;;;;;14.23;8.83;;;3.40;99.90;;;;;;5071786;28;20525;-77
2022/12/07 00:27:56;;;;;;;12.77;9.30;;;3.40;99.90;;;;;;5071222;28;20786;-77
2022/12/07 00:30:24;;;;;;;10.13;8.90;;;3.40;99.90;;;;;;5078534;28;20507;-77
2022/12/07 00:32:51;;;;;;;14.03;9.63;;;3.40;99.90;;;;;;5074908;28;20487;-77
2022/12/07 00:35:18;;;;;;;11.73;8.17;;;3.40;99.90;;;;;;5077317;28;21257;-77
2022/12/07 00:37:45;;;;;;;14.30;9.67;;;3.40;99.90;;;;;;5078770;28;20561;-77
2022/12/07 00:40:13;;;;;;;13.07;9.40;;;3.40;99.90;;;;;;5075553;28;20541;-77
2022/12/07 00:42:40;;;;;;;12.43;9.13;;;3.40;99.90;;;;;;5083316;28;20436;-77
2022/12/07 00:45:10;;;;;;;12.30;10.17;;;3.40;99.90;;;;;;5075792;28;21060;-77
2022/12/07 00:47:37;;;;;;;10.20;8.37;;;3.50;99.90;;;;;;5082423;28;20451;-77
2022/12/07 00:50:04;;;;;;;13.40;10.37;;;3.50;99.90;;;;;;5077531;28;20521;-77
2022/12/07 00:52:31;;;;;;;11.07;9.00;;;3.50;99.90;;;;;;5082566;28;20447;-77
2022/12/07 00:54:58;;;;;;;12.60;8.57;;;3.40;99.90;;;;;;5079726;28;20507;-77
2022/12/07 00:57:25;;;;;;;16.53;10.23;;;3.40;99.90;;;;;;5087820;28;20470;-77
2022/12/07 00:59:55;;;;;;;12.50;8.20;;;3.40;99.90;;;;;;5083883;28;20733;-77
2022/12/07 01:02:23;;;;;;;17.17;10.30;;;3.40;99.90;;;;;;5068392;28;20456;-77
2022/12/07 01:04:50;;;;;;;12.43;10.20;;;3.50;99.90;;;;;;5069899;28;20510;-77
2022/12/07 01:07:17;;;;;;;14.93;9.27;;;3.40;99.90;;;;;;5073655;28;20451;-77
2022/12/07 01:09:44;;;;;;;15.17;8.63;;;3.40;99.90;;;;;;5076151;28;20565;-77
2022/12/07 01:12:11;;;;;;;16.50;9.80;;;3.40;99.90;;;;;;5072187;28;21103;-77
2022/12/07 01:14:38;;;;;;;14.27;9.43;;;3.40;99.90;;;;;;5082874;28;20507;-77
2022/12/07 01:17:05;;;;;;;12.53;8.30;;;3.40;99.90;;;;;;5065502;28;21156;-77
2022/12/07 01:19:33;;;;;;;17.20;11.40;;;3.50;99.90;;;;;;5083866;28;20490;-77
2022/12/07 01:22:00;;;;;;;17.00;9.30;;;3.40;99.90;;;;;;5082130;28;20478;-77
2022/12/07 01:24:27;;;;;;;11.50;8.17;;;3.40;99.90;;;;;;5085825;28;21015;-77
2022/12/07 01:26:54;;;;;;;11.13;8.77;;;3.40;99.90;;;;;;5077690;28;20561;-77
2022/12/07 01:29:21;;;;;;;12.40;8.80;;;3.40;99.90;;;;;;5071562;28;20923;-77
2022/12/07 01:31:50;;;;;;;14.03;9.67;;;3.40;99.90;;;;;;5084567;28;20475;-77
2022/12/07 01:34:17;;;;;;;13.93;11.07;;;3.40;99.90;;;;;;5081256;28;20479;-77
2022/12/07 01:36:45;;;;;;;16.17;10.33;;;3.40;99.90;;;;;;5068555;28;20487;-77
2022/12/07 01:39:12;;;;;;;13.40;10.37;;;3.40;99.90;;;;;;5070567;28;20863;-77
2022/12/07 01:41:43;;;;;;;14.57;10.83;;;3.40;99.90;;;;;;5084062;28;20494;-77
2022/12/07 01:44:19;;;;;;;14.60;9.80;;;3.40;99.90;;;;;;5081260;28;20454;-77
2022/12/07 01:46:47;;;;;;;13.80;9.60;;;3.40;99.90;;;;;;5076541;28;20515;-77
2022/12/07 01:49:18;;;;;;;19.37;10.20;;;3.40;99.90;;;;;;5080695;28;20543;-77
2022/12/07 01:51:49;;;;;;;15.90;10.90;;;3.40;99.90;;;;;;5074728;28;20853;-77
2022/12/07 01:54:18;;;;;;;11.53;8.90;;;3.40;99.90;;;;;;5080405;28;20483;-77
2022/12/07 01:56:49;;;;;;;20.17;9.73;;;3.30;99.90;;;;;;5074938;28;20492;-77
2022/12/07 01:59:17;;;;;;;15.40;11.67;;;3.30;99.90;;;;;;5081227;28;20491;-77
2022/12/07 02:01:45;;;;;;;13.87;10.70;;;3.30;99.90;;;;;;5073142;28;20478;-77
2022/12/07 02:04:13;;;;;;;15.03;9.20;;;3.30;99.90;;;;;;5072943;28;20521;-77
2022/12/07 02:06:41;;;;;;;11.17;8.50;;;3.30;99.90;;;;;;5075851;28;20492;-77
2022/12/07 02:09:09;;;;;;;19.83;10.90;;;3.30;99.90;;;;;;5079507;28;20455;-77
2022/12/07 02:11:37;;;;;;;14.07;9.40;;;3.30;99.90;;;;;;5073106;28;20503;-77
2022/12/07 02:14:04;;;;;;;15.23;9.40;;;3.30;99.90;;;;;;5079983;28;20583;-77
2022/12/07 02:16:39;;;;;;;17.47;10.40;;;3.30;99.90;;;;;;5077600;28;20464;-77
2022/12/07 02:19:33;;;;;;;16.50;9.13;;;3.30;99.90;;;;;;5081432;28;20451;-77
2022/12/07 02:22:09;;;;;;;13.97;10.33;;;3.30;99.90;;;;;;5045362;28;20932;-77
2022/12/07 02:24:53;;;;;;;15.50;9.70;;;3.20;99.90;;;;;;5083157;28;20466;-77
2022/12/07 02:27:46;;;;;;;15.93;10.30;;;3.20;99.90;;;;;;5068753;28;21135;-77
2022/12/07 02:30:17;;;;;;;15.17;9.07;;;3.20;99.90;;;;;;5072210;28;20492;-77
2022/12/07 02:32:51;;;;;;;12.70;10.07;;;3.20;99.90;;;;;;5073278;28;20478;-77
2022/12/07 02:35:23;;;;;;;12.97;9.67;;;3.20;99.90;;;;;;5070153;28;20488;-77
2022/12/07 02:37:59;;;;;;;13.33;10.00;;;3.20;99.90;;;;;;5081974;28;20451;-77
2022/12/07 02:40:34;;;;;;;15.83;10.93;;;3.20;99.90;;;;;;5072293;28;20490;-77
2022/12/07 02:43:08;;;;;;;19.20;11.67;;;3.20;99.90;;;;;;5081257;28;20474;-77
2022/12/07 02:45:39;;;;;;;11.20;8.80;;;3.20;99.90;;;;;;5071424;28;20471;-77
2022/12/07 02:48:07;;;;;;;20.07;10.17;;;3.20;99.90;;;;;;5070032;28;20472;-77
2022/12/07 02:50:34;;;;;;;15.83;9.80;;;3.20;99.90;;;;;;5081386;28;20560;-77
2022/12/07 02:53:01;;;;;;;19.93;8.63;;;3.20;99.90;;;;;;5074693;28;20482;-77
2022/12/07 02:55:35;;;;;;;16.60;8.77;;;3.20;99.90;;;;;;5075253;28;20480;-77
2022/12/07 02:58:19;;;;;;;18.43;9.47;;;3.20;99.90;;;;;;5069008;28;20478;-77
2022/12/07 03:00:54;;;;;;;15.83;9.00;;;3.20;99.90;;;;;;5071872;28;20502;-77
2022/12/07 03:03:23;;;;;;;14.40;9.13;;;3.20;99.90;;;;;;5072405;28;20539;-77
2022/12/07 03:06:03;;;;;;;16.23;10.60;;;3.20;99.90;;;;;;5071604;28;20516;-77
2022/12/07 03:08:38;;;;;;;15.40;9.60;;;3.20;99.90;;;;;;5076853;28;20475;-77
2022/12/07 03:11:08;;;;;;;15.57;9.57;;;3.20;99.90;;;;;;5082886;28;20482;-77
2022/12/07 03:13:42;;;;;;;15.87;9.20;;;3.20;99.90;;;;;;5082010;28;20519;-77
2022/12/07 03:16:15;;;;;;;13.50;9.90;;;3.20;99.90;;;;;;5080806;28;20555;-77
2022/12/07 03:18:47;;;;;;;14.23;9.10;;;3.20;99.90;;;;;;5085782;28;20468;-77
2022/12/07 03:21:18;;;;;;;16.70;10.30;;;3.20;99.90;;;;;;5082735;28;20505;-77
2022/12/07 03:23:49;;;;;;;15.60;10.80;;;3.20;99.90;;;;;;5080712;28;20443;-77
2022/12/07 03:26:18;;;;;;;14.70;9.67;;;3.20;99.90;;;;;;5079129;28;20483;-77
2022/12/07 03:28:52;;;;;;;16.07;10.03;;;3.20;99.90;;;;;;5085012;28;20579;-77
2022/12/07 03:31:24;;;;;;;17.00;8.57;;;3.20;99.90;;;;;;5077871;28;20482;-77
2022/12/07 03:33:57;;;;;;;11.97;9.70;;;3.30;99.90;;;;;;5075863;28;20515;-77
2022/12/07 03:36:30;;;;;;;11.93;8.73;;;3.20;99.90;;;;;;5071218;28;20500;-77
2022/12/07 03:39:04;;;;;;;16.17;9.93;;;3.20;99.90;;;;;;5065973;28;20498;-77
2022/12/07 03:41:34;;;;;;;15.87;9.43;;;3.10;99.90;;;;;;5079984;28;20479;-77
2022/12/07 03:44:02;;;;;;;16.07;10.40;;;3.20;99.90;;;;;;5076186;28;20943;-77
2022/12/07 03:46:38;;;;;;;14.50;10.30;;;3.20;99.90;;;;;;5075376;28;20577;-77
2022/12/07 03:49:11;;;;;;;15.03;9.30;;;3.10;99.90;;;;;;5073376;28;20450;-77
2022/12/07 03:51:46;;;;;;;11.57;8.93;;;3.10;99.90;;;;;;5072376;28;20490;-77
2022/12/07 03:54:20;;;;;;;10.83;7.60;;;3.20;99.90;;;;;;5078564;28;20509;-77
2022/12/07 03:56:48;;;;;;;13.73;9.73;;;3.20;99.90;;;;;;5069382;28;20986;-77
2022/12/07 03:59:17;;;;;;;14.70;8.33;;;3.10;99.90;;;;;;5064569;28;20558;-77
2022/12/07 04:01:52;;;;;;;13.07;8.40;;;3.20;99.90;;;;;;5074871;28;20543;-77
2022/12/07 04:04:19;;;;;;;12.93;9.07;;;3.20;99.90;;;;;;5066444;28;20523;-77
2022/12/07 04:06:46;;;;;;;15.20;10.00;;;3.10;99.90;;;;;;5071780;28;20539;-77
2022/12/07 04:09:14;;;;;;;14.70;7.60;;;3.20;99.90;;;;;;5072580;28;20850;-77
2022/12/07 04:11:41;;;;;;;13.80;9.80;;;3.10;99.90;;;;;;5070362;28;20867;-77
2022/12/07 04:14:19;;;;;;;14.90;8.93;;;3.10;99.90;;;;;;5067281;28;20579;-77
2022/12/07 04:16:49;;;;;;;16.57;9.67;;;3.10;99.90;;;;;;5071365;28;20565;-77
2022/12/07 04:19:17;;;;;;;11.97;6.93;;;3.10;99.90;;;;;;5064053;28;20524;-77
2022/12/07 04:21:44;;;;;;;10.93;8.37;;;3.10;99.90;;;;;;5070184;28;20484;-77
2022/12/07 04:24:13;;;;;;;12.67;9.00;;;3.10;99.90;;;;;;5071248;28;20482;-77
2022/12/07 04:26:40;;;;;;;15.20;10.13;;;3.10;99.90;;;;;;5066042;28;20492;-77
2022/12/07 04:29:07;;;;;;;9.67;8.67;;;3.10;99.90;;;;;;5064188;28;20511;-77
2022/12/07 04:31:34;;;;;;;10.07;6.63;;;3.10;99.90;;;;;;5070022;28;20482;-77
2022/12/07 04:34:03;;;;;;;13.50;8.63;;;3.00;99.90;;;;;;5077999;28;20568;-77
2022/12/07 04:36:30;;;;;;;10.90;8.00;;;3.00;99.90;;;;;;5069139;28;20491;-77
2022/12/07 04:38:57;;;;;;;9.90;6.10;;;3.00;99.90;;;;;;5074979;28;20498;-77
2022/12/07 04:41:27;;;;;;;9.97;7.13;;;2.90;99.90;;;;;;5074250;28;20535;-77
2022/12/07 04:43:55;;;;;;;9.67;7.33;;;2.80;99.90;;;;;;5064246;28;20479;-77
2022/12/07 04:46:23;;;;;;;16.30;7.23;;;2.80;99.90;;;;;;5067379;28;20478;-76
2022/12/07 04:48:50;;;;;;;6.83;6.00;;;2.80;99.90;;;;;;5065416;28;20617;-77
2022/12/07 04:51:21;;;;;;;9.50;6.30;;;2.80;99.90;;;;;;5068086;28;21170;-77
2022/12/07 04:53:48;;;;;;;8.70;6.50;;;2.70;99.90;;;;;;5063374;28;20525;-77
2022/12/07 04:56:16;;;;;;;9.97;7.77;;;2.70;99.90;;;;;;5065263;28;20540;-77
2022/12/07 04:58:44;;;;;;;11.33;5.10;;;2.60;99.90;;;;;;5064930;28;20545;-77
2022/12/07 05:01:11;;;;;;;8.93;5.97;;;2.60;99.90;;;;;;5065151;28;20483;-77
2022/12/07 05:03:38;;;;;;;8.17;6.03;;;2.60;99.90;;;;;;5067623;28;20513;-77
2022/12/07 05:06:07;;;;;;;8.17;4.93;;;2.60;99.90;;;;;;5066848;28;20528;-77
2022/12/07 05:08:35;;;;;;;7.20;5.60;;;2.60;99.90;;;;;;5069635;28;20459;-77
2022/12/07 05:11:04;;;;;;;8.50;5.83;;;2.60;99.90;;;;;;5069798;28;20525;-77
2022/12/07 05:13:31;;;;;;;8.00;5.50;;;2.60;99.90;;;;;;5073334;28;21202;-76
2022/12/07 05:15:58;;;;;;;6.90;6.30;;;2.60;99.90;;;;;;5071875;28;20548;-77
2022/12/07 05:18:25;;;;;;;9.07;6.60;;;2.60;99.90;;;;;;5068722;28;20526;-77
2022/12/07 05:20:52;;;;;;;7.60;6.00;;;2.60;99.90;;;;;;5068986;28;20491;-77
2022/12/07 05:23:19;;;;;;;7.60;5.70;;;2.60;99.90;;;;;;5071515;28;20486;-77
2022/12/07 05:25:48;;;;;;;6.97;5.07;;;2.60;99.90;;;;;;5074116;28;20857;-77
2022/12/07 05:28:15;;;;;;;7.53;5.60;;;2.60;99.90;;;;;;5075592;28;20545;-77
2022/12/07 05:30:41;;;;;;;10.70;7.47;;;2.60;99.90;;;;;;5075416;28;20894;-77
2022/12/07 05:33:08;;;;;;;8.10;5.30;;;2.50;99.90;;;;;;5070797;28;20495;-77
2022/12/07 05:35:37;;;;;;;8.17;6.60;;;2.50;99.90;;;;;;5075457;28;20545;-77
2022/12/07 05:38:04;;;;;;;7.30;6.20;;;2.50;99.90;;;;;;5067832;28;20930;-77
2022/12/07 05:40:31;;;;;;;11.13;8.63;;;2.60;99.90;;;;;;5070652;28;20483;-77
2022/12/07 05:42:59;;;;;;;9.83;7.80;;;2.60;99.90;;;;;;5068095;28;20479;-77
2022/12/07 05:45:26;;;;;;;9.13;6.40;;;2.50;99.90;;;;;;5079060;28;20463;-77
2022/12/07 05:47:53;;;;;;;10.73;8.10;;;2.50;99.90;;;;;;5076038;28;20539;-77
2022/12/07 05:50:20;;;;;;;9.00;5.53;;;2.50;99.90;;;;;;5067007;28;20488;-77
2022/12/07 05:52:47;;;;;;;9.50;6.83;;;2.50;99.90;;;;;;5066885;28;20484;-77
2022/12/07 05:55:14;;;;;;;10.90;9.00;;;2.50;99.90;;;;;;5065986;28;20549;-77
2022/12/07 05:59:22;;;;;;;9.83;6.93;;;2.50;99.90;;;;;;5070142;28;20959;-77
2022/12/07 06:00:29;;;;;;;11.60;9.17;;;2.50;99.90;;;;;;5069412;28;20458;-77
2022/12/07 06:02:56;;;;;;;9.90;7.03;;;2.50;99.90;;;;;;5074776;28;20450;-77
2022/12/07 06:05:23;;;;;;;12.93;9.10;;;2.50;99.90;;;;;;5071770;28;20545;-76
2022/12/07 06:07:50;;;;;;;9.17;7.40;;;2.50;99.90;;;;;;5065464;28;20464;-75
2022/12/07 06:10:17;;;;;;;11.07;8.50;;;2.50;99.90;;;;;;5064755;28;20536;-76
2022/12/07 06:12:46;;;;;;;11.40;8.63;;;2.50;99.90;;;;;;5065589;28;20479;-76
2022/12/07 06:15:13;;;;;;;10.27;7.13;;;2.50;99.90;;;;;;5069159;28;20947;-76
2022/12/07 06:17:42;;;;;;;8.47;6.60;;;2.50;99.90;;;;;;5068009;28;20846;-76
2022/12/07 06:20:10;;;;;;;9.97;8.03;;;2.50;99.90;;;;;;5073940;28;20495;-76
2022/12/07 06:22:36;;;;;;;11.20;8.70;;;2.50;99.90;;;;;;5066353;28;20521;-76
2022/12/07 06:25:04;;;;;;;8.43;7.03;;;2.50;99.90;;;;;;5074848;28;21038;-76
2022/12/07 06:27:32;;;;;;;8.67;7.00;;;2.50;99.90;;;;;;5065824;28;20967;-76
2022/12/07 06:29:59;;;;;;;13.13;7.43;;;2.50;99.90;;;;;;5071346;28;20530;-76
2022/12/07 06:32:26;;;;;;;9.17;6.90;;;2.50;99.90;;;;;;5072193;28;20455;-76
2022/12/07 06:34:54;;;;;;;10.83;8.80;;;2.50;99.90;;;;;;5073342;28;21050;-75
2022/12/07 06:37:21;;;;;;;12.47;8.67;;;2.60;99.90;;;;;;5068385;28;20502;-75
2022/12/07 06:39:48;;;;;;;11.30;8.90;;;2.50;99.90;;;;;;5066525;28;20491;-75
2022/12/07 06:42:15;;;;;;;10.27;8.13;;;2.60;99.90;;;;;;5075363;28;20620;-74
2022/12/07 06:44:42;;;;;;;15.27;7.80;;;2.60;99.90;;;;;;5072658;28;20808;-75
2022/12/07 06:47:09;;;;;;;10.73;8.70;;;2.60;99.90;;;;;;5069589;28;20491;-75
2022/12/07 06:49:36;;;;;;;12.63;8.77;;;2.60;99.90;;;;;;5079097;28;20463;-75
2022/12/07 06:52:05;;;;;;;12.27;9.00;;;2.60;99.90;;;;;;5064075;28;23204;-76
2022/12/07 06:54:32;;;;;;;11.03;8.17;;;2.60;99.90;;;;;;5071478;28;20484;-78
2022/12/07 06:56:59;;;;;;;15.40;10.20;;;2.60;99.90;;;;;;5067658;28;20468;-78
2022/12/07 06:59:26;;;;;;;13.90;10.00;;;2.60;99.90;;;;;;5064594;28;20489;-78
2022/12/07 07:01:53;;;;;;;8.97;7.60;;;2.60;99.90;;;;;;5064741;28;20555;-77
2022/12/07 07:04:20;;;;;;;10.40;6.63;;;2.60;99.90;;;;;;5065908;28;20867;-77
2022/12/07 07:06:47;;;;;;;10.57;7.63;;;2.60;99.90;;;;;;5060572;28;20549;-77
2022/12/07 07:09:15;;;;;;;11.67;7.43;;;2.60;99.90;;;;;;5065142;28;20482;-77
2022/12/07 07:11:42;;;;;;;14.60;9.77;;;2.60;99.90;;;;;;5077755;28;20486;-77
2022/12/07 07:14:09;;;;;;;9.63;7.80;;;2.60;99.90;;;;;;5074235;28;20479;-77
2022/12/07 07:16:36;;;;;;;11.13;8.37;;;2.70;99.90;;;;;;5071662;28;20588;-77
2022/12/07 07:19:03;;;;;;;13.43;8.83;;;2.60;99.90;;;;;;5071154;28;20483;-77
2022/12/07 07:21:30;;;;;;;10.20;7.30;;;2.60;99.90;;;;;;5069824;28;20483;-77
2022/12/07 07:23:56;;;;;;;13.00;8.80;;;2.60;99.90;;;;;;5065348;28;20491;-77
2022/12/07 07:26:25;;;;;;;10.50;7.97;;;2.60;99.90;;;;;;5075564;28;20486;-77
2022/12/07 07:28:52;;;;;;;12.57;8.70;;;2.60;99.90;;;;;;5064877;28;20522;-77
2022/12/07 07:31:18;;;;;;;10.50;7.43;;;2.60;99.90;;;;;;5067975;28;20927;-77
2022/12/07 07:33:46;;;;;;;12.63;9.27;;;2.70;99.90;;;;;;5067216;28;20487;-77
2022/12/07 07:36:13;;;;;;;10.60;8.50;;;2.70;99.90;;;;;;5065040;28;20987;-77
2022/12/07 07:38:40;;;;;;;11.60;8.17;;;2.70;99.90;;;;;;5064697;28;20513;-77
2022/12/07 07:41:07;;;;;;;9.27;7.70;;;2.70;99.90;;;;;;5069484;28;20479;-77
2022/12/07 07:43:35;;;;;;;14.90;8.40;;;2.70;99.90;;;;;;5075910;28;20506;-77
2022/12/07 07:46:02;;;;;;;10.53;7.50;;;2.70;99.90;;;;;;5070901;28;20491;-77
2022/12/07 07:48:29;;;;;;;10.63;8.00;;;2.70;99.90;;;;;;5066476;28;20971;-77
2022/12/07 07:50:56;;;;;;;10.80;7.97;;;2.80;99.90;;;;;;5068098;28;20495;-77
2022/12/07 07:53:23;;;;;;;11.70;9.13;;;2.80;99.90;;;;;;5074145;28;20494;-77
2022/12/07 07:55:53;;;;;;;14.33;10.87;;;2.80;99.90;;;;;;5075977;28;20526;-77
2022/12/07 07:58:20;;;;;;;17.17;13.07;;;2.80;99.90;;;;;;5066774;28;20470;-77
2022/12/07 08:00:48;;;;;;;32.10;21.97;;;2.80;99.90;;;;;;5064366;28;20490;-77
2022/12/07 08:03:15;;;;;;;13.40;10.00;;;2.80;99.90;;;;;;5062744;28;20495;-77
2022/12/07 08:05:42;;;;;;;26.87;18.43;;;2.90;99.90;;;;;;5071075;28;20519;-77
2022/12/07 08:08:09;;;;;;;31.00;22.10;;;2.80;99.90;;;;;;5064172;28;20491;-77
2022/12/07 08:10:37;;;;;;;17.80;12.90;;;2.90;99.90;;;;;;5073396;28;20479;-77
2022/12/07 08:13:14;;;;;;;11.50;8.90;;;2.90;99.90;;;;;;5073702;28;21008;-77
2022/12/07 08:15:42;;;;;;;11.43;8.07;;;2.90;99.90;;;;;;5067438;28;20953;-77
2022/12/07 08:18:13;;;;;;;13.87;9.87;;;3.00;99.90;;;;;;5064138;28;20483;-77
2022/12/07 08:20:40;;;;;;;12.10;8.13;;;3.00;99.90;;;;;;5064793;28;20528;-77
2022/12/07 08:23:08;;;;;;;13.50;10.57;;;3.00;99.90;;;;;;5069526;28;20483;-77
2022/12/07 08:25:36;;;;;;;12.10;9.40;;;3.00;99.90;;;;;;5071233;28;20472;-77
2022/12/07 08:28:03;;;;;;;16.17;12.63;;;3.00;99.90;;;;;;5081248;28;20455;-77
2022/12/07 08:30:31;;;;;;;12.80;10.90;;;3.10;99.90;;;;;;5071555;28;20530;-77
2022/12/07 08:32:58;;;;;;;15.43;11.10;;;3.20;99.90;;;;;;5064496;28;20879;-77
2022/12/07 08:35:26;;;;;;;11.47;8.40;;;3.20;99.90;;;;;;5062492;28;20572;-77
2022/12/07 08:37:53;;;;;;;11.90;8.90;;;3.30;99.90;;;;;;5063111;28;20458;-77
2022/12/07 08:40:21;;;;;;;17.40;12.63;;;3.40;99.90;;;;;;5069908;28;21023;-77
2022/12/07 08:42:50;;;;;;;13.93;10.80;;;3.50;99.90;;;;;;5075682;28;20534;-77
2022/12/07 08:45:18;;;;;;;13.93;11.47;;;3.50;99.90;;;;;;5064390;28;20552;-77
2022/12/07 08:47:51;;;;;;;18.53;9.73;;;3.50;99.90;;;;;;5062877;28;20556;-77
2022/12/07 08:50:18;;;;;;;14.73;11.17;;;3.60;99.90;;;;;;5065848;28;20990;-77
2022/12/07 08:52:50;;;;;;;14.67;10.17;;;3.60;99.90;;;;;;5067463;28;20487;-77
2022/12/07 08:55:17;;;;;;;16.90;12.77;;;3.70;99.90;;;;;;5069032;28;20515;-77
2022/12/07 08:57:43;;;;;;;22.10;18.73;;;3.70;99.90;;;;;;5069325;28;21014;-77
2022/12/07 09:00:12;;;;;;;15.13;13.33;;;3.70;99.90;;;;;;5069892;28;20494;-77
2022/12/07 09:02:39;;;;;;;12.40;10.20;;;3.80;99.90;;;;;;5068991;28;20458;-77
2022/12/07 09:05:06;;;;;;;15.00;10.07;;;3.90;99.90;;;;;;5067714;28;20491;-77
2022/12/07 09:07:34;;;;;;;12.77;9.70;;;3.90;99.90;;;;;;5065025;28;20549;-77
2022/12/07 09:10:04;;;;;;;23.80;21.00;;;3.90;99.90;;;;;;5067410;28;20491;-77
2022/12/07 09:12:31;;;;;;;37.00;26.27;;;3.90;99.90;;;;;;5072695;28;20489;-77
2022/12/07 09:14:58;;;;;;;51.13;32.20;;;4.00;99.90;;;;;;5073676;28;20495;-77
2022/12/07 09:17:25;;;;;;;39.93;27.13;;;3.90;99.90;;;;;;5066381;28;20546;-77
2022/12/07 09:19:51;;;;;;;31.43;23.80;;;3.90;99.90;;;;;;5070059;28;20601;-76
2022/12/07 09:22:19;;;;;;;37.63;21.50;;;4.00;99.90;;;;;;5067977;28;20555;-76
2022/12/07 09:24:46;;;;;;;12.53;8.33;;;3.90;99.90;;;;;;5067618;28;20463;-76
2022/12/07 09:27:16;;;;;;;15.27;8.50;;;3.90;99.90;;;;;;5068598;28;20475;-76
2022/12/07 09:29:43;;;;;;;15.90;11.60;;;3.80;99.90;;;;;;5069874;28;20851;-78
2022/12/07 09:32:10;;;;;;;10.60;8.40;;;3.70;99.90;;;;;;5075693;28;20498;-77
2022/12/07 09:34:36;;;;;;;10.50;8.47;;;3.90;99.90;;;;;;5068158;28;21559;-77
2022/12/07 09:37:03;;;;;;;12.67;9.03;;;3.90;99.90;;;;;;5071269;28;20573;-78
2022/12/07 09:39:31;;;;;;;16.17;9.87;;;4.00;99.90;;;;;;5064703;28;20467;-78
2022/12/07 09:41:59;;;;;;;12.70;8.43;;;4.00;99.90;;;;;;5069374;28;20480;-79
2022/12/07 09:44:28;;;;;;;11.27;7.23;;;4.00;99.90;;;;;;5065555;28;20513;-78
2022/12/07 09:46:57;;;;;;;12.70;9.50;;;4.00;99.90;;;;;;5066553;28;20471;-78
2022/12/07 09:49:27;;;;;;;14.90;10.03;;;4.00;99.90;;;;;;5065955;28;20494;-75
2022/12/07 09:52:03;;;;;;;16.17;9.87;;;4.00;99.90;;;;;;5073017;28;21099;-76
2022/12/07 09:54:31;;;;;;;15.77;11.10;;;4.10;99.90;;;;;;5067460;28;20560;-76
2022/12/07 09:56:59;;;;;;;9.50;6.70;;;4.00;99.90;;;;;;5068758;28;20487;-76
2022/12/07 09:59:27;;;;;;;9.80;7.17;;;4.10;99.90;;;;;;5066385;28;20491;-76
2022/12/07 10:01:56;;;;;;;9.83;6.73;;;4.20;99.90;;;;;;5068614;28;20455;-76
2022/12/07 10:04:25;;;;;;;11.53;8.20;;;4.20;99.90;;;;;;5071176;28;20547;-76
2022/12/07 10:06:52;;;;;;;9.27;7.90;;;4.20;99.90;;;;;;5070026;28;20513;-76
2022/12/07 10:09:21;;;;;;;10.23;7.33;;;4.20;99.90;;;;;;5068559;28;20487;-77
2022/12/07 10:12:06;;;;;;;9.23;7.83;;;4.40;99.90;;;;;;5069236;28;20487;-76
2022/12/07 10:14:36;;;;;;;9.97;7.80;;;4.40;99.90;;;;;;5062283;28;20541;-77
2022/12/07 10:17:23;;;;;;;10.47;6.70;;;4.30;99.90;;;;;;5062431;28;20511;-77
2022/12/07 10:19:50;;;;;;;7.27;6.00;;;4.40;99.90;;;;;;5061617;28;20578;-77
2022/12/07 10:22:18;;;;;;;8.90;5.73;;;4.50;99.90;;;;;;5062505;28;20487;-77
2022/12/07 10:24:48;;;;;;;6.00;5.20;;;4.40;99.90;;;;;;5065674;28;20561;-77
2022/12/07 10:27:31;;;;;;;9.93;6.60;;;4.40;99.90;;;;;;5067477;28;20486;-77
2022/12/07 10:30:00;;;;;;;7.83;5.97;;;4.30;99.90;;;;;;5068011;28;21159;-77
2022/12/07 10:32:33;;;;;;;7.80;5.87;;;4.30;99.90;;;;;;5063289;28;20459;-77
2022/12/07 10:35:22;;;;;;;6.63;5.97;;;4.30;99.90;;;;;;5068536;28;20452;-77
2022/12/07 10:37:50;;;;;;;8.10;5.63;;;4.30;99.90;;;;;;5065808;28;20444;-77
2022/12/07 10:40:29;;;;;;;6.77;4.70;;;4.30;99.90;;;;;;5067191;28;20536;-77
2022/12/07 10:43:04;;;;;;;7.73;6.10;;;4.30;99.90;;;;;;5065616;28;20503;-78
2022/12/07 10:45:34;;;;;;;7.80;5.70;;;4.30;99.90;;;;;;5068161;28;20486;-78
2022/12/07 10:48:07;;;;;;;12.43;7.77;;;4.30;99.90;;;;;;5066766;28;20896;-77
2022/12/07 10:50:58;;;;;;;6.67;5.60;;;4.30;99.90;;;;;;5063493;28;20468;-78
2022/12/07 10:53:40;;;;;;;9.67;7.20;;;4.20;99.90;;;;;;5064493;28;21083;-78
2022/12/07 10:56:25;;;;;;;7.43;6.43;;;4.30;99.90;;;;;;5072472;28;20518;-78
2022/12/07 10:59:03;;;;;;;10.33;6.63;;;4.30;99.90;;;;;;5071962;28;20467;-78
2022/12/07 11:01:39;;;;;;;6.90;4.43;;;4.30;99.90;;;;;;5070527;28;20494;-78
2022/12/07 11:04:25;;;;;;;7.50;5.07;;;4.30;99.90;;;;;;5075700;28;20981;-78
2022/12/07 11:06:58;;;;;;;7.57;5.40;;;4.40;99.90;;;;;;5073751;28;20443;-78
2022/12/07 11:09:55;;;;;;;7.00;6.20;;;4.50;99.90;;;;;;5064877;28;21019;-78
2022/12/07 11:12:35;;;;;;;6.80;4.93;;;4.50;99.90;;;;;;5061189;28;20499;-79
2022/12/07 11:15:10;;;;;;;8.47;6.40;;;4.50;99.90;;;;;;5065692;28;20448;-79
2022/12/07 11:17:48;;;;;;;7.87;6.40;;;4.40;99.90;;;;;;5069375;28;20521;-78
2022/12/07 11:20:30;;;;;;;8.47;5.87;;;4.40;99.90;;;;;;5064636;28;20490;-79
2022/12/07 11:23:04;;;;;;;8.53;5.67;;;4.40;99.90;;;;;;5067060;28;20467;-79
2022/12/07 11:25:35;;;;;;;11.63;6.53;;;4.50;99.90;;;;;;5072661;28;20470;-78
2022/12/07 11:28:19;;;;;;;6.90;5.10;;;4.40;99.90;;;;;;5076089;28;20503;-78
2022/12/07 11:30:56;;;;;;;6.50;5.13;;;4.30;99.90;;;;;;5066856;28;20475;-78
2022/12/07 11:33:35;;;;;;;8.63;6.57;;;4.20;99.90;;;;;;5063937;28;21334;-79
2022/12/07 11:36:17;;;;;;;7.67;5.50;;;4.10;99.90;;;;;;5068178;28;20488;-78
2022/12/07 11:38:48;;;;;;;7.90;6.03;;;4.10;99.90;;;;;;5061265;28;20550;-79
2022/12/07 11:41:22;;;;;;;10.67;6.80;;;4.00;99.90;;;;;;5068551;28;20576;-78
2022/12/07 11:43:57;;;;;;;8.13;6.20;;;4.00;99.90;;;;;;5067221;28;20552;-78
2022/12/07 11:46:28;;;;;;;8.60;6.40;;;4.00;99.90;;;;;;5063823;28;20504;-78
2022/12/07 11:49:04;;;;;;;9.80;5.97;;;4.10;99.90;;;;;;5070109;28;20491;-78
2022/12/07 11:51:36;;;;;;;10.97;6.77;;;4.10;99.90;;;;;;5076509;28;21179;-78
2022/12/07 11:54:12;;;;;;;9.77;7.03;;;4.00;99.90;;;;;;5072036;28;20471;-78
2022/12/07 11:56:39;;;;;;;9.43;5.90;;;4.00;99.90;;;;;;5071382;28;20482;-78
2022/12/07 11:59:12;;;;;;;9.40;5.90;;;4.00;99.90;;;;;;5063542;28;20648;-79
2022/12/07 12:01:51;;;;;;;10.10;7.40;;;4.10;99.90;;;;;;5060436;28;21049;-79
2022/12/07 12:04:33;;;;;;;14.13;7.70;;;4.10;99.90;;;;;;5062376;28;20487;-79
2022/12/07 12:07:00;;;;;;;8.23;6.20;;;4.10;99.90;;;;;;5063351;28;20487;-79
2022/12/07 12:09:31;;;;;;;8.60;6.23;;;4.10;99.90;;;;;;5063916;28;20475;-78
2022/12/07 12:12:26;;;;;;;16.10;8.90;;;4.10;99.90;;;;;;5064021;28;20953;-79
2022/12/07 12:15:06;;;;;;;11.13;7.30;;;4.10;99.90;;;;;;5064483;28;21034;-78
2022/12/07 12:17:50;;;;;;;10.20;6.40;;;4.20;99.90;;;;;;5067367;28;20580;-78
2022/12/07 12:20:24;;;;;;;9.47;6.87;;;4.20;99.90;;;;;;5068509;28;20518;-79
2022/12/07 12:22:54;;;;;;;9.93;6.43;;;4.20;99.90;;;;;;5062632;28;20572;-80
2022/12/07 12:25:26;;;;;;;6.93;6.00;;;4.10;99.90;;;;;;5070209;28;20517;-79
2022/12/07 12:27:56;;;;;;;10.47;6.27;;;4.10;99.90;;;;;;5064950;28;20999;-79
2022/12/07 12:30:32;;;;;;;8.47;6.40;;;4.10;99.90;;;;;;5072317;28;20517;-79
2022/12/07 12:33:06;;;;;;;9.17;6.20;;;4.10;99.90;;;;;;5071210;28;20495;-79
2022/12/07 12:35:36;;;;;;;6.37;5.70;;;4.10;99.90;;;;;;5070513;28;20495;-79
2022/12/07 12:38:33;;;;;;;8.47;5.87;;;4.10;99.90;;;;;;5070088;28;20491;-78
2022/12/07 12:41:01;;;;;;;9.00;6.80;;;4.20;99.90;;;;;;5079913;28;20473;-78
2022/12/07 12:43:52;;;;;;;9.33;6.20;;;4.20;99.90;;;;;;5073298;28;20456;-78
2022/12/07 12:46:50;;;;;;;7.80;6.03;;;4.20;99.90;;;;;;5082182;28;20454;-77
2022/12/07 12:49:44;;;;;;;6.90;5.53;;;4.10;99.90;;;;;;5077240;28;20561;-77
2022/12/07 12:52:51;;;;;;;5.10;4.13;;;4.20;99.90;;;;;;5081018;28;20821;-77
2022/12/07 12:56:06;;;;;;;6.33;5.70;;;4.30;99.90;;;;;;5081201;28;21005;-77
2022/12/07 12:58:40;;;;;;;8.47;5.50;;;4.30;99.90;;;;;;5069758;28;20487;-77
2022/12/07 13:01:48;;;;;;;10.30;7.73;;;4.30;99.90;;;;;;5087254;28;20462;-77
2022/12/07 13:04:39;;;;;;;14.43;9.00;;;4.30;99.90;;;;;;5083576;28;20933;-77
2022/12/07 13:07:11;;;;;;;10.40;7.00;;;4.30;99.90;;;;;;5070414;28;20478;-77